Time;durP1;ratioP1;P1;durP2;ratioP2;P2;SDS_P1;SDS_P2;PMS_P1;PMS_P2;Temp;Humidity;BMP_temperature;BMP_pressure;BME280_temperature;BME280_humidity;BME280_pressure;Samples;Min_cycle;Max_cycle;Signal;HPM_P1;HPM_P2
2020/12/31 00:00:10;;;;;;;13.40;5.65;;;;;;;-8.96;44.07;102459.88;4991072;28;20077;-82
2020/12/31 00:02:37;;;;;;;10.65;5.97;;;;;;;-10.19;43.94;102282.78;4990068;28;20035;-82
2020/12/31 00:05:04;;;;;;;20.13;6.63;;;;;;;-9.11;43.84;102466.88;4989780;28;20130;-83
2020/12/31 00:07:31;;;;;;;16.73;4.38;;;;;;;-10.56;44.42;102223.03;4988166;28;20027;-82
2020/12/31 00:09:58;;;;;;;13.27;5.15;;;;;;;-10.50;43.42;102236.13;4987820;28;20038;-82
2020/12/31 00:12:25;;;;;;;13.60;5.15;;;;;;;-10.92;43.69;102169.44;5001364;28;20031;-83
2020/12/31 00:14:52;;;;;;;13.85;5.50;;;;;;;-9.90;43.48;102336.75;4983095;28;20023;-82
2020/12/31 00:17:20;;;;;;;13.70;6.13;;;;;;;-9.95;43.60;102311.97;4981186;28;20042;-82
2020/12/31 00:19:46;;;;;;;16.60;6.00;;;;;;;-10.90;43.44;102167.56;4982532;28;20058;-83
2020/12/31 00:22:13;;;;;;;15.73;5.72;;;;;;;-9.56;43.26;102383.31;4982618;28;20034;-82
2020/12/31 00:24:40;;;;;;;17.23;6.40;;;;;;;-10.12;43.81;102351.19;4982879;28;20333;-82
2020/12/31 00:27:07;;;;;;;9.57;5.03;;;;;;;-10.03;44.01;102369.50;4982641;28;20039;-83
2020/12/31 00:29:34;;;;;;;22.45;6.35;;;;;;;-11.13;43.64;102182.91;4981858;28;20085;-82
2020/12/31 00:32:00;;;;;;;15.82;5.20;;;;;;;-9.47;43.91;102419.50;4996440;28;20062;-83
2020/12/31 00:34:31;;;;;;;9.07;4.60;;;;;;;-9.21;43.29;102474.53;4982492;28;20451;-82
2020/12/31 00:37:01;;;;;;;18.17;5.53;;;;;;;-11.22;43.56;102145.03;4984116;28;20423;-82
2020/12/31 00:39:29;;;;;;;10.80;5.05;;;;;;;-10.57;42.92;102221.31;4984570;28;20091;-82
2020/12/31 00:41:56;;;;;;;9.65;4.60;;;;;;;-10.15;43.53;102375.47;4980780;28;20042;-82
2020/12/31 00:44:24;;;;;;;13.25;7.10;;;;;;;-10.57;44.46;102360.53;4984582;28;20022;-82
2020/12/31 00:46:52;;;;;;;10.45;5.30;;;;;;;-11.46;44.87;102183.56;4984636;28;20038;-82
2020/12/31 00:49:23;;;;;;;12.07;4.78;;;;;;;-10.97;43.21;102230.31;4986405;28;20022;-82
2020/12/31 00:51:51;;;;;;;17.67;6.18;;;;;;;-10.65;43.25;102268.06;4985586;28;20042;-83
2020/12/31 00:54:18;;;;;;;13.65;6.25;;;;;;;-10.13;42.64;102295.88;4984004;28;20033;-82
2020/12/31 00:56:47;;;;;;;11.05;4.80;;;;;;;-10.32;42.17;102213.78;4983000;28;20122;-83
2020/12/31 00:59:14;;;;;;;22.35;5.65;;;;;;;-9.31;41.83;102365.06;4984159;28;20427;-82
2020/12/31 01:01:41;;;;;;;19.25;7.03;;;;;;;-10.05;42.60;102276.75;4985100;28;20372;-83
2020/12/31 01:04:09;;;;;;;16.13;6.65;;;;;;;-8.66;41.73;102477.13;4984568;28;20041;-82
2020/12/31 01:06:40;;;;;;;17.67;4.63;;;;;;;-9.89;40.73;102239.31;4985394;28;20031;-83
2020/12/31 01:09:16;;;;;;;11.70;4.88;;;;;;;-9.68;41.19;102257.91;4987270;28;20031;-82
2020/12/31 01:11:47;;;;;;;25.08;5.35;;;;;;;-9.60;40.62;102279.81;4987235;28;20061;-82
2020/12/31 01:14:16;;;;;;;14.25;5.50;;;;;;;-9.15;40.85;102384.78;4986944;28;20023;-82
2020/12/31 01:16:49;;;;;;;18.13;7.88;;;;;;;-8.91;41.05;102391.63;4986477;28;20066;-82
2020/12/31 01:19:18;;;;;;;14.23;4.75;;;;;;;-9.98;40.11;102186.19;4984491;28;20035;-82
2020/12/31 01:21:46;;;;;;;20.20;6.53;;;;;;;-9.56;41.08;102251.91;4985256;28;20033;-82
2020/12/31 01:24:14;;;;;;;8.45;3.75;;;;;;;-8.79;40.37;102364.13;4984641;28;20388;-82
2020/12/31 01:26:43;;;;;;;10.85;4.55;;;;;;;-8.96;39.79;102308.66;4987600;28;20034;-82
2020/12/31 01:29:15;;;;;;;14.63;6.05;;;;;;;-8.62;39.60;102383.84;4984729;28;20034;-82
2020/12/31 01:31:50;;;;;;;10.48;4.80;;;;;;;-7.89;40.05;102474.75;4983920;28;20525;-83
2020/12/31 01:34:19;;;;;;;9.98;4.85;;;;;;;-8.19;40.35;102456.69;4986102;28;20029;-82
2020/12/31 01:36:53;;;;;;;13.50;3.80;;;;;;;-8.48;40.79;102385.72;4986958;28;20097;-81
2020/12/31 01:39:26;;;;;;;13.77;5.82;;;;;;;-8.59;39.75;102355.00;4984883;28;20035;-82
2020/12/31 01:41:53;;;;;;;9.32;4.35;;;;;;;-9.32;40.23;102275.69;4986340;28;20090;-82
2020/12/31 01:44:21;;;;;;;10.02;4.07;;;;;;;-8.93;40.77;102330.84;4988284;28;20019;-82
2020/12/31 01:46:52;;;;;;;16.75;5.05;;;;;;;-9.21;41.22;102308.16;4983429;28;20058;-82
2020/12/31 01:49:24;;;;;;;14.13;5.25;;;;;;;-8.67;41.21;102358.09;4984710;28;20038;-82
2020/12/31 01:51:53;;;;;;;11.85;6.00;;;;;;;-7.94;40.76;102462.50;4982553;28;20031;-82
2020/12/31 01:54:20;;;;;;;15.07;5.57;;;;;;;-9.21;40.97;102267.91;4980416;28;20496;-82
2020/12/31 01:56:50;;;;;;;13.25;4.55;;;;;;;-8.20;41.56;102435.25;4982529;28;20022;-83
2020/12/31 01:59:17;;;;;;;15.45;5.78;;;;;;;-9.99;41.85;102114.78;4983530;28;20035;-83
2020/12/31 02:01:44;;;;;;;11.02;4.95;;;;;;;-8.06;39.98;102321.56;4982652;28;20106;-82
2020/12/31 02:04:12;;;;;;;14.02;4.45;;;;;;;-7.68;39.83;102349.88;4982730;28;20026;-82
2020/12/31 02:06:39;;;;;;;25.10;8.02;;;;;;;-8.54;40.59;102315.31;4983528;28;20058;-83
2020/12/31 02:09:06;;;;;;;14.38;5.43;;;;;;;-10.01;41.47;102068.47;4981936;28;20035;-83
2020/12/31 02:11:37;;;;;;;8.07;4.25;;;;;;;-7.96;40.60;102344.31;4984316;28;20075;-83
2020/12/31 02:14:07;;;;;;;9.32;5.55;;;;;;;-8.05;41.15;102307.16;4968343;28;20054;-82
2020/12/31 02:16:38;;;;;;;12.95;5.13;;;;;;;-7.57;40.98;102383.25;4984063;28;20027;-83
2020/12/31 02:19:21;;;;;;;26.08;5.63;;;;;;;-8.59;40.73;102188.47;4985689;28;20054;-82
2020/12/31 02:21:48;;;;;;;11.57;6.07;;;;;;;-7.22;40.03;102375.84;4987958;28;20014;-83
2020/12/31 02:24:19;;;;;;;13.35;5.32;;;;;;;-7.26;39.60;102377.00;4988253;28;20023;-82
2020/12/31 02:26:49;;;;;;;13.75;4.55;;;;;;;-7.48;39.99;102364.84;4986068;28;20042;-82
2020/12/31 02:29:18;;;;;;;17.48;6.35;;;;;;;-8.27;39.94;102177.63;4985962;28;20081;-83
2020/12/31 02:31:48;;;;;;;8.68;4.70;;;;;;;-8.72;40.51;102145.34;4983834;28;20054;-83
2020/12/31 02:34:17;;;;;;;25.52;5.80;;;;;;;-8.92;40.80;102133.06;4984863;28;20054;-82
2020/12/31 02:36:44;;;;;;;16.90;5.88;;;;;;;-8.75;40.16;102113.28;4982760;28;20059;-82
2020/12/31 02:39:14;;;;;;;19.27;5.60;;;;;;;-7.62;41.29;102350.38;4982521;28;20027;-83
2020/12/31 02:41:41;;;;;;;17.80;5.00;;;;;;;-7.99;42.05;102357.91;4981467;28;20031;-83
2020/12/31 02:44:11;;;;;;;9.43;5.13;;;;;;;-7.83;41.76;102326.47;4982458;28;20031;-83
2020/12/31 02:46:38;;;;;;;10.70;4.32;;;;;;;-8.93;42.19;102167.09;4979838;28;20041;-82
2020/12/31 02:49:06;;;;;;;10.85;4.30;;;;;;;-8.50;42.29;102211.22;4997706;28;20487;-83
2020/12/31 02:51:35;;;;;;;17.30;5.97;;;;;;;-7.77;42.09;102329.75;4982052;28;20042;-83
2020/12/31 02:54:04;;;;;;;22.23;4.65;;;;;;;-7.51;42.42;102330.91;4983511;28;20042;-83
2020/12/31 02:56:32;;;;;;;10.77;4.68;;;;;;;-7.86;41.74;102232.56;4981818;28;20090;-83
2020/12/31 02:58:58;;;;;;;16.08;6.45;;;;;;;-7.99;41.86;102242.31;4982752;28;20025;-82
2020/12/31 03:01:26;;;;;;;15.93;5.15;;;;;;;-7.90;41.23;102204.09;4984959;28;20033;-83
2020/12/31 03:03:58;;;;;;;11.57;5.15;;;;;;;-8.06;41.40;102139.66;4985381;28;20041;-82
2020/12/31 03:06:25;;;;;;;12.45;5.22;;;;;;;-9.97;41.23;101839.56;4982791;28;20026;-83
2020/12/31 03:08:55;;;;;;;16.42;4.00;;;;;;;-7.41;40.50;102228.97;4985119;28;20023;-83
2020/12/31 03:11:24;;;;;;;17.45;5.38;;;;;;;-6.95;41.37;102281.72;4981916;28;20069;-83
2020/12/31 03:13:54;;;;;;;10.15;5.07;;;;;;;-6.69;41.03;102268.44;4983977;28;20031;-82
2020/12/31 03:16:22;;;;;;;17.85;5.25;;;;;;;-7.33;40.96;102197.06;4986987;28;20042;-82
2020/12/31 03:18:49;;;;;;;11.02;5.10;;;;;;;-7.78;42.06;102091.38;4991935;28;20019;-82
2020/12/31 03:21:17;;;;;;;14.93;5.55;;;;;;;-7.28;44.25;102278.38;4986379;28;20031;-82
2020/12/31 03:23:46;;;;;;;11.60;4.75;;;;;;;-8.96;43.92;101965.97;4985703;28;20131;-83
2020/12/31 03:26:13;;;;;;;15.90;4.57;;;;;;;-9.50;42.76;101774.22;4988726;28;20081;-82
2020/12/31 03:28:40;;;;;;;10.10;4.95;;;;;;;-7.31;42.30;102074.00;4991463;28;20057;-81
2020/12/31 03:31:07;;;;;;;18.95;5.68;;;;;;;-6.67;42.41;102147.13;5006902;28;20400;-82
2020/12/31 03:33:36;;;;;;;9.02;5.25;;;;;;;-7.51;43.71;102122.91;4988687;28;20037;-82
2020/12/31 03:36:05;;;;;;;11.43;4.90;;;;;;;-7.31;43.51;102129.69;4990973;28;20066;-82
2020/12/31 03:38:35;;;;;;;8.30;4.38;;;;;;;-5.96;42.43;102223.19;4990332;28;20022;-82
2020/12/31 03:41:03;;;;;;;17.25;4.80;;;;;;;-7.19;41.86;102009.59;4989464;28;20031;-82
2020/12/31 03:43:32;;;;;;;15.63;4.93;;;;;;;-7.48;41.02;101896.69;4992119;28;20050;-82
2020/12/31 03:46:05;;;;;;;15.52;6.32;;;;;;;-6.24;41.62;102138.81;4990994;28;20085;-83
2020/12/31 03:48:32;;;;;;;15.10;4.47;;;;;;;-7.46;41.45;101972.78;4994653;28;20463;-83
2020/12/31 03:51:00;;;;;;;20.00;5.50;;;;;;;-7.27;41.02;102015.47;4995050;28;20070;-83
2020/12/31 03:53:31;;;;;;;11.57;5.43;;;;;;;-8.27;42.04;101941.16;4973654;29;20038;-82
2020/12/31 03:55:59;;;;;;;11.95;5.35;;;;;;;-7.58;42.52;102047.94;4955422;29;20036;-83
2020/12/31 03:58:26;;;;;;;16.38;5.82;;;;;;;-8.16;42.79;101993.34;4971722;29;20039;-83
2020/12/31 04:00:53;;;;;;;14.85;5.15;;;;;;;-8.27;42.89;101956.44;4956328;29;20035;-81
2020/12/31 04:03:24;;;;;;;18.67;5.10;;;;;;;-8.49;43.61;101963.13;4956621;29;20035;-82
2020/12/31 04:05:51;;;;;;;10.27;4.80;;;;;;;-8.60;42.94;101874.34;4974328;29;20074;-82
2020/12/31 04:08:17;;;;;;;16.30;5.45;;;;;;;-7.14;43.59;102139.34;4972318;29;20047;-82
2020/12/31 04:10:47;;;;;;;12.60;4.40;;;;;;;-8.32;45.88;102071.38;4953611;29;20443;-82
2020/12/31 04:13:17;;;;;;;8.98;4.43;;;;;;;-7.64;45.45;102104.81;4955958;29;20024;-83
2020/12/31 04:16:00;;;;;;;12.52;5.55;;;;;;;-7.97;44.30;102019.97;4970300;29;20071;-82
2020/12/31 04:18:27;;;;;;;10.57;4.38;;;;;;;-7.86;44.25;102021.94;4970160;29;20044;-82
2020/12/31 04:21:01;;;;;;;10.07;4.63;;;;;;;-7.51;44.90;102101.38;4970330;29;20035;-83
2020/12/31 04:23:34;;;;;;;11.10;4.15;;;;;;;-8.61;45.38;101948.69;4969146;29;20050;-82
2020/12/31 04:26:01;;;;;;;15.93;5.13;;;;;;;-7.91;45.87;102124.41;4954527;29;20047;-83
2020/12/31 04:28:34;;;;;;;12.02;4.75;;;;;;;-8.04;46.71;102088.50;4955334;29;20063;-83
2020/12/31 04:31:01;;;;;;;17.30;4.50;;;;;;;-8.24;45.72;102023.41;4972280;28;20051;-83
2020/12/31 04:33:28;;;;;;;10.25;4.25;;;;;;;-8.18;45.89;102004.22;4987954;28;20030;-82
2020/12/31 04:35:56;;;;;;;20.95;4.50;;;;;;;-8.03;45.18;101991.63;4985441;28;20015;-81
2020/12/31 04:38:43;;;;;;;11.07;4.70;;;;;;;-6.84;45.62;102200.25;5001704;28;20031;-82
2020/12/31 04:41:13;;;;;;;10.48;4.95;;;;;;;-9.63;46.02;101757.19;4990399;28;20511;-82
2020/12/31 04:43:53;;;;;;;12.50;4.20;;;;;;;-7.93;45.44;101972.19;4989627;28;20035;-83
2020/12/31 04:46:40;;;;;;;13.00;5.82;;;;;;;-8.37;46.32;101999.13;4990425;28;20018;-82
2020/12/31 04:49:26;;;;;;;15.60;5.20;;;;;;;-7.65;46.10;102119.25;4991545;28;20035;-82
2020/12/31 04:52:06;;;;;;;10.13;5.43;;;;;;;-7.17;46.80;102188.00;4992548;28;20035;-82
2020/12/31 04:54:57;;;;;;;13.55;4.50;;;;;;;-7.52;46.43;102026.97;4991174;28;20046;-82
2020/12/31 04:57:29;;;;;;;12.02;5.20;;;;;;;-8.15;45.73;101918.00;5008496;28;20391;-83
2020/12/31 05:00:00;;;;;;;16.92;5.05;;;;;;;-7.60;46.22;102019.41;4992781;28;20030;-82
2020/12/31 05:02:59;;;;;;;18.08;6.07;;;;;;;-8.18;47.50;101966.59;4989833;28;20147;-82
2020/12/31 05:05:27;;;;;;;11.10;4.47;;;;;;;-8.09;48.84;102015.34;4988168;28;20050;-82
2020/12/31 05:07:56;;;;;;;16.55;6.03;;;;;;;-8.50;51.02;101996.34;4987963;28;20065;-83
2020/12/31 05:10:28;;;;;;;8.40;4.88;;;;;;;-7.61;51.18;102123.44;4988756;28;20494;-83
2020/12/31 05:13:10;;;;;;;8.85;4.38;;;;;;;-9.13;51.29;101899.91;4989182;28;20090;-82
2020/12/31 05:15:43;;;;;;;10.38;5.03;;;;;;;-7.56;51.42;102107.88;4986725;28;20031;-83
2020/12/31 05:18:17;;;;;;;13.02;5.68;;;;;;;-6.82;50.63;102176.78;4988179;28;20502;-82
2020/12/31 05:20:48;;;;;;;15.68;4.88;;;;;;;-8.95;50.50;101793.25;4986442;28;20027;-82
2020/12/31 05:23:18;;;;;;;13.20;4.10;;;;;;;-8.64;49.75;101819.13;4986956;28;20035;-83
2020/12/31 05:25:50;;;;;;;11.63;4.10;;;;;;;-7.56;50.93;102029.88;4988201;28;20055;-82
2020/12/31 05:28:27;;;;;;;9.90;4.93;;;;;;;-7.16;54.13;102193.31;4985641;28;20074;-82
2020/12/31 05:31:04;;;;;;;15.77;6.45;;;;;;;-7.78;54.86;102096.75;5003720;28;20030;-82
2020/12/31 05:33:34;;;;;;;7.30;5.72;;;;;;;-8.94;55.41;101918.44;4988128;28;20049;-83
2020/12/31 05:36:17;;;;;;;9.68;4.60;;;;;;;-7.41;56.73;102185.91;4985365;28;20058;-82
2020/12/31 05:39:02;;;;;;;21.67;5.72;;;;;;;-6.96;55.53;102198.38;4985929;28;20026;-83
2020/12/31 05:41:41;;;;;;;11.50;5.32;;;;;;;-6.59;54.71;102195.97;5004330;28;20050;-82
2020/12/31 05:44:16;;;;;;;19.20;4.18;;;;;;;-8.07;55.01;101990.09;4990849;28;20023;-82
2020/12/31 05:46:55;;;;;;;12.90;5.20;;;;;;;-6.39;54.35;102185.69;4990818;28;20031;-83
2020/12/31 05:49:32;;;;;;;13.88;6.07;;;;;;;-8.27;55.12;101972.56;4989660;28;20058;-82
2020/12/31 05:51:59;;;;;;;11.48;4.90;;;;;;;-7.55;55.14;102044.22;4986944;28;20038;-83
2020/12/31 05:54:28;;;;;;;11.55;5.22;;;;;;;-7.05;54.10;102082.22;4988832;28;20034;-83
2020/12/31 05:57:05;;;;;;;8.02;4.35;;;;;;;-6.98;54.50;102092.56;4988451;28;20030;-83
2020/12/31 05:59:38;;;;;;;13.18;4.45;;;;;;;-6.24;53.65;102190.03;4987912;28;20031;-83
2020/12/31 06:02:13;;;;;;;9.80;4.15;;;;;;;-8.15;54.25;101961.00;4985779;28;20059;-83
2020/12/31 06:04:57;;;;;;;22.55;5.10;;;;;;;-7.40;53.70;101977.75;4985781;28;20503;-83
2020/12/31 06:07:36;;;;;;;19.00;5.70;;;;;;;-8.57;53.65;101831.19;4987685;28;20050;-82
2020/12/31 06:10:08;;;;;;;20.05;5.72;;;;;;;-8.58;54.63;101915.38;4980906;28;20038;-83
2020/12/31 06:12:59;;;;;;;9.68;5.38;;;;;;;-7.57;54.92;102040.72;5013026;28;20061;-83
2020/12/31 06:15:33;;;;;;;14.30;6.05;;;;;;;-7.23;55.34;102199.16;4984955;28;20034;-82
2020/12/31 06:18:06;;;;;;;5.15;3.72;;;;;;;-9.29;55.33;101848.97;4981749;28;20049;-83
2020/12/31 06:20:37;;;;;;;16.20;3.92;;;;;;;-7.46;54.21;102040.03;4979564;28;20023;-81
2020/12/31 06:23:08;;;;;;;10.13;4.72;;;;;;;-8.68;53.46;101783.53;4983914;28;20035;-82
2020/12/31 06:25:38;;;;;;;9.35;4.72;;;;;;;-7.64;53.95;101970.34;4987962;28;20444;-83
2020/12/31 06:28:12;;;;;;;16.70;4.65;;;;;;;-6.75;54.95;102198.78;4998912;28;20562;-83
2020/12/31 06:30:47;;;;;;;18.65;4.15;;;;;;;-6.74;56.07;102173.59;5003097;28;20098;-83
2020/12/31 06:33:41;;;;;;;13.32;5.70;;;;;;;-6.79;55.17;102152.34;4989804;28;20027;-83
2020/12/31 06:36:09;;;;;;;10.98;3.90;;;;;;;-6.31;54.28;102212.97;5018912;28;20030;-83
2020/12/31 06:38:47;;;;;;;7.70;3.92;;;;;;;-6.75;54.45;102108.09;5003924;28;20402;-84
2020/12/31 06:41:40;;;;;;;10.38;4.40;;;;;;;-6.22;54.60;102190.81;4988003;28;20034;-83
2020/12/31 06:44:17;;;;;;;15.23;5.18;;;;;;;-7.80;54.88;101934.66;4985508;28;20082;-82
2020/12/31 06:46:52;;;;;;;17.05;5.78;;;;;;;-7.44;55.21;102019.25;4984158;28;20447;-82
2020/12/31 06:49:20;;;;;;;17.20;4.43;;;;;;;-9.71;56.63;101732.66;5002898;28;20372;-83
2020/12/31 06:51:47;;;;;;;11.55;5.38;;;;;;;-8.99;58.21;101907.09;4986375;28;20026;-82
2020/12/31 06:54:30;;;;;;;15.00;4.72;;;;;;;-9.54;56.60;101705.66;4988007;28;20035;-83
2020/12/31 06:56:59;;;;;;;10.63;4.15;;;;;;;-7.32;56.95;102109.13;4987873;28;20034;-82
2020/12/31 06:59:33;;;;;;;10.05;4.45;;;;;;;-8.02;57.31;101979.91;4987533;28;20034;-83
2020/12/31 07:02:00;;;;;;;18.88;5.45;;;;;;;-7.93;56.96;101965.00;5004671;28;20045;-83
2020/12/31 07:04:41;;;;;;;15.98;5.28;;;;;;;-8.52;56.45;101823.69;5003994;28;20027;-83
2020/12/31 07:07:20;;;;;;;14.07;4.55;;;;;;;-6.13;56.34;102196.53;5021408;28;20053;-82
2020/12/31 07:10:03;;;;;;;12.43;4.65;;;;;;;-7.70;58.24;102020.03;5004673;28;20491;-83
2020/12/31 07:12:39;;;;;;;13.88;5.07;;;;;;;-7.96;58.78;102027.06;4988080;28;20030;-82
2020/12/31 07:15:08;;;;;;;9.90;4.20;;;;;;;-7.01;59.05;102187.91;4986882;28;20035;-83
2020/12/31 07:17:40;;;;;;;11.13;4.70;;;;;;;-6.82;58.52;102205.53;4988087;28;20037;-83
2020/12/31 07:20:12;;;;;;;8.77;4.55;;;;;;;-7.41;57.83;102035.22;4989492;28;20027;-83
2020/12/31 07:23:09;;;;;;;12.85;4.75;;;;;;;-7.67;57.68;101991.19;4990270;28;20023;-83
2020/12/31 07:25:46;;;;;;;16.75;4.82;;;;;;;-7.34;57.96;102019.53;4988308;28;20054;-83
2020/12/31 07:28:17;;;;;;;8.13;4.50;;;;;;;-6.85;58.44;102104.25;4985861;28;20428;-82
2020/12/31 07:30:53;;;;;;;12.02;4.03;;;;;;;-6.71;58.60;102095.28;4987332;28;20077;-82
2020/12/31 07:33:39;;;;;;;11.32;4.00;;;;;;;-7.59;58.38;101952.06;4986662;28;20027;-82
2020/12/31 07:36:13;;;;;;;9.93;4.40;;;;;;;-6.58;60.54;102189.59;4986432;28;20093;-82
2020/12/31 07:38:40;;;;;;;19.85;5.05;;;;;;;-6.81;60.81;102186.59;4987091;28;20407;-83
2020/12/31 07:41:11;;;;;;;17.30;4.95;;;;;;;-8.50;61.12;101914.88;4984610;28;20085;-82
2020/12/31 07:43:38;;;;;;;17.35;5.22;;;;;;;-6.69;59.18;102100.53;4987978;28;20027;-83
2020/12/31 07:46:06;;;;;;;11.85;4.10;;;;;;;-6.20;59.07;102186.19;4989745;28;20058;-83
2020/12/31 07:48:32;;;;;;;10.38;4.10;;;;;;;-7.78;58.17;101908.53;4988628;28;20023;-85
2020/12/31 07:51:01;;;;;;;11.18;3.97;;;;;;;-8.06;58.84;101888.81;5022423;28;20050;-82
2020/12/31 07:53:32;;;;;;;16.10;6.18;;;;;;;-7.86;58.16;101858.78;4992107;28;20031;-82
2020/12/31 07:56:01;;;;;;;8.18;5.03;;;;;;;-6.47;56.91;102033.44;4990156;28;20034;-83
2020/12/31 07:58:32;;;;;;;13.07;5.67;;;;;;;-6.25;55.29;102099.34;4988977;28;20037;-82
2020/12/31 08:01:09;;;;;;;10.48;4.65;;;;;;;-6.21;55.25;102100.88;4988930;28;20306;-82
2020/12/31 08:03:37;;;;;;;10.45;4.88;;;;;;;-7.45;54.23;101936.81;4990487;28;20031;-83
2020/12/31 08:06:08;;;;;;;11.77;5.47;;;;;;;-7.23;51.86;102059.19;4992880;28;20061;-82
2020/12/31 08:08:35;;;;;;;13.15;4.30;;;;;;;-8.04;52.07;101862.72;4991463;28;20090;-83
2020/12/31 08:11:10;;;;;;;16.02;6.10;;;;;;;-6.77;50.90;102018.41;4989620;28;20396;-81
2020/12/31 08:13:40;;;;;;;12.52;5.38;;;;;;;-5.81;50.42;102158.34;4988409;28;20030;-84
2020/12/31 08:16:14;;;;;;;17.23;6.43;;;;;;;-6.38;50.14;102056.19;5006202;28;20030;-82
2020/12/31 08:18:42;;;;;;;9.73;5.13;;;;;;;-6.84;50.42;101984.78;4987708;28;20042;-82
2020/12/31 08:21:14;;;;;;;12.43;4.85;;;;;;;-6.61;51.54;102099.06;4990828;28;20048;-82
2020/12/31 08:23:47;;;;;;;12.90;6.53;;;;;;;-7.08;51.80;102023.19;4990109;28;20037;-82
2020/12/31 08:26:15;;;;;;;15.68;4.97;;;;;;;-7.37;52.16;101961.38;5000845;28;20077;-82
2020/12/31 08:28:45;;;;;;;16.88;5.90;;;;;;;-8.41;51.81;101764.72;4974819;28;20045;-83
2020/12/31 08:31:17;;;;;;;16.27;6.30;;;;;;;-8.74;52.41;101732.91;4990714;28;20023;-84
2020/12/31 08:33:57;;;;;;;11.75;5.53;;;;;;;-6.97;51.18;101941.69;4990197;28;20041;-84
2020/12/31 08:36:26;;;;;;;14.55;6.35;;;;;;;-7.33;52.58;101964.75;4990886;28;20042;-84
2020/12/31 08:38:58;;;;;;;17.25;8.20;;;;;;;-7.72;52.73;101865.09;4989397;28;20126;-83
2020/12/31 08:41:26;;;;;;;9.23;4.75;;;;;;;-7.77;52.71;101873.47;4987666;28;20037;-83
2020/12/31 08:43:53;;;;;;;22.50;5.32;;;;;;;-7.01;52.67;101977.88;4987979;28;20031;-82
2020/12/31 08:46:23;;;;;;;16.02;6.28;;;;;;;-6.03;52.85;102177.88;4983429;28;20542;-83
2020/12/31 08:48:56;;;;;;;14.52;4.88;;;;;;;-7.95;53.41;101835.22;4987796;28;20029;-84
2020/12/31 08:51:29;;;;;;;14.60;6.20;;;;;;;-8.89;53.92;101750.84;4985021;28;20030;-81
2020/12/31 08:54:15;;;;;;;14.48;6.10;;;;;;;-6.13;53.09;102121.03;4985555;28;20034;-83
2020/12/31 08:56:48;;;;;;;18.48;5.22;;;;;;;-7.91;52.85;101811.69;4986544;28;20026;-83
2020/12/31 08:59:17;;;;;;;18.48;5.63;;;;;;;-5.56;52.87;102180.91;4988569;28;20023;-83
2020/12/31 09:01:45;;;;;;;13.50;5.60;;;;;;;-7.05;53.23;101961.06;4987923;28;20030;-83
2020/12/31 09:04:19;;;;;;;9.90;5.40;;;;;;;-5.60;53.25;102206.41;5017197;28;20107;-82
2020/12/31 09:07:09;;;;;;;24.42;11.13;;;;;;;-6.54;52.85;102109.44;4987149;28;20054;-83
2020/12/31 09:09:37;;;;;;;10.15;3.85;;;;;;;-6.11;53.60;102205.38;4986542;28;20026;-83
2020/12/31 09:12:08;;;;;;;25.48;6.47;;;;;;;-6.44;54.68;102212.09;4982855;28;20034;-81
2020/12/31 09:14:37;;;;;;;14.23;5.55;;;;;;;-7.43;54.13;102047.91;4984239;28;20030;-81
2020/12/31 09:17:26;;;;;;;18.33;6.88;;;;;;;-6.27;53.97;102203.72;4986119;28;20031;-83
2020/12/31 09:19:54;;;;;;;27.20;8.60;;;;;;;-7.45;53.22;101971.81;4985290;28;20030;-81
2020/12/31 09:22:21;;;;;;;17.23;7.78;;;;;;;-6.88;53.50;102120.63;4987162;28;20384;-82
2020/12/31 09:24:51;;;;;;;20.67;7.65;;;;;;;-6.60;53.88;102191.56;4989127;28;20027;-83
2020/12/31 09:27:28;;;;;;;16.00;6.75;;;;;;;-7.75;54.09;101994.34;4989774;28;20081;-83
2020/12/31 09:30:00;;;;;;;18.95;6.75;;;;;;;-6.97;53.58;102083.56;4989985;28;20042;-83
2020/12/31 09:32:30;;;;;;;13.93;6.32;;;;;;;-8.00;53.37;101944.88;4990058;28;20053;-82
2020/12/31 09:35:03;;;;;;;15.45;6.50;;;;;;;-7.41;54.10;102048.69;4991381;28;20030;-82
2020/12/31 09:37:30;;;;;;;16.70;6.00;;;;;;;-6.11;52.86;102214.34;4988929;28;20027;-84
2020/12/31 09:39:58;;;;;;;15.38;6.75;;;;;;;-7.68;53.39;101990.31;5020164;28;21001;-82
2020/12/31 09:42:33;;;;;;;13.25;6.53;;;;;;;-8.85;52.81;101773.88;4989262;28;20038;-82
2020/12/31 09:44:59;;;;;;;18.90;7.00;;;;;;;-6.54;52.97;102201.91;4987018;28;20099;-83
2020/12/31 09:47:26;;;;;;;15.85;6.65;;;;;;;-7.54;52.40;102012.78;4985953;28;20031;-83
2020/12/31 09:49:56;;;;;;;23.30;7.53;;;;;;;-7.45;52.13;102001.41;5018861;28;20031;-83
2020/12/31 09:52:23;;;;;;;16.00;7.37;;;;;;;-7.98;51.97;101972.50;4986729;28;20115;-83
2020/12/31 09:54:52;;;;;;;15.27;7.60;;;;;;;-8.17;51.84;101902.94;4987967;28;20285;-83
2020/12/31 09:57:24;;;;;;;16.33;7.07;;;;;;;-7.12;52.77;102118.59;4987328;28;20030;-82
2020/12/31 09:59:50;;;;;;;14.47;6.80;;;;;;;-6.89;52.98;102159.31;4989175;28;20031;-82
2020/12/31 10:02:22;;;;;;;20.50;8.05;;;;;;;-7.93;52.69;101958.75;4988402;28;20015;-85
2020/12/31 10:04:49;;;;;;;20.15;7.35;;;;;;;-5.92;52.90;102267.88;5002144;28;20049;-82
2020/12/31 10:07:16;;;;;;;23.52;7.07;;;;;;;-8.62;52.61;101852.94;4987984;28;20014;-84
2020/12/31 10:09:47;;;;;;;17.42;7.35;;;;;;;-6.50;53.03;102173.78;4987656;28;20035;-83
2020/12/31 10:12:16;;;;;;;16.52;7.88;;;;;;;-5.87;52.55;102250.50;4970986;28;20070;-82
2020/12/31 10:14:52;;;;;;;15.95;7.07;;;;;;;-6.36;53.48;102158.53;4987717;28;20034;-83
2020/12/31 10:17:26;;;;;;;21.08;7.53;;;;;;;-7.78;52.16;101903.13;4989130;28;20039;-87
2020/12/31 10:20:18;;;;;;;24.83;8.00;;;;;;;-9.00;52.10;101706.78;4988752;28;20034;-83
2020/12/31 10:22:48;;;;;;;19.85;7.95;;;;;;;-6.43;52.25;102114.09;4988757;28;20031;-83
2020/12/31 10:25:16;;;;;;;20.25;7.45;;;;;;;-5.93;52.71;102189.75;4986202;28;20035;-84
2020/12/31 10:27:51;;;;;;;14.07;7.72;;;;;;;-6.42;52.11;102099.66;4986740;28;20034;-84
2020/12/31 10:30:20;;;;;;;17.92;7.85;;;;;;;-7.17;51.91;101962.78;4985104;28;20041;-82
2020/12/31 10:32:49;;;;;;;18.50;8.10;;;;;;;-7.25;51.80;102018.06;4986153;28;20034;-84
2020/12/31 10:35:18;;;;;;;19.50;6.70;;;;;;;-8.44;51.91;101756.84;4985009;28;20058;-82
2020/12/31 10:37:45;;;;;;;15.77;7.75;;;;;;;-6.59;52.22;102123.22;4988278;28;20027;-81
2020/12/31 10:40:15;;;;;;;23.77;7.53;;;;;;;-6.75;53.63;102121.56;4989005;28;20055;-82
2020/12/31 10:42:46;;;;;;;15.40;6.35;;;;;;;-6.37;53.44;102167.59;4989146;28;20034;-83
2020/12/31 10:45:20;;;;;;;24.02;8.15;;;;;;;-5.81;53.52;102244.69;4988656;28;20074;-83
2020/12/31 10:47:55;;;;;;;15.75;7.32;;;;;;;-5.60;53.15;102299.00;4986714;28;20042;-83
2020/12/31 10:50:22;;;;;;;18.38;7.38;;;;;;;-5.41;52.92;102282.41;4988826;28;20030;-82
2020/12/31 10:52:51;;;;;;;14.73;8.25;;;;;;;-6.19;53.76;102233.72;4988333;28;20034;-84
2020/12/31 10:55:20;;;;;;;17.92;7.55;;;;;;;-5.66;54.09;102284.13;5021225;28;20035;-83
2020/12/31 10:57:47;;;;;;;19.52;7.45;;;;;;;-6.11;54.10;102233.22;4990062;28;20037;-82
2020/12/31 11:00:15;;;;;;;12.32;6.72;;;;;;;-6.55;54.09;102124.72;4989846;28;20034;-83
2020/12/31 11:02:50;;;;;;;15.88;7.93;;;;;;;-6.69;54.80;102092.47;4987150;28;20035;-84
2020/12/31 11:05:17;;;;;;;17.45;7.65;;;;;;;-5.53;54.15;102277.88;4986965;28;20027;-81
2020/12/31 11:07:45;;;;;;;13.88;6.72;;;;;;;-7.43;55.57;101965.34;4986378;28;20031;-83
2020/12/31 11:10:14;;;;;;;18.73;7.95;;;;;;;-7.61;55.90;101939.69;4986269;28;20621;-84
2020/12/31 11:12:45;;;;;;;19.80;7.50;;;;;;;-8.92;55.59;101730.44;4985464;28;20034;-84
2020/12/31 11:15:12;;;;;;;17.55;6.50;;;;;;;-6.87;56.89;102103.50;4983927;28;20031;-83
2020/12/31 11:17:39;;;;;;;13.05;6.53;;;;;;;-7.15;57.25;102068.50;4982217;28;20558;-82
2020/12/31 11:20:09;;;;;;;12.77;6.65;;;;;;;-7.33;57.45;101999.72;4981788;28;20031;-83
2020/12/31 11:22:37;;;;;;;17.00;6.07;;;;;;;-7.81;57.28;101947.22;4969634;28;20037;-84
2020/12/31 11:25:04;;;;;;;20.55;6.20;;;;;;;-7.17;58.08;102051.59;4987349;28;20090;-83
2020/12/31 11:27:44;;;;;;;19.42;7.05;;;;;;;-5.67;58.39;102305.78;4986439;28;20047;-81
2020/12/31 11:30:12;;;;;;;19.65;7.13;;;;;;;-8.15;58.52;101901.88;4988772;28;20034;-82
2020/12/31 11:32:41;;;;;;;14.48;7.03;;;;;;;-7.19;58.82;102066.97;4986351;28;20045;-82
2020/12/31 11:35:14;;;;;;;18.90;6.80;;;;;;;-5.67;58.19;102309.38;4985434;28;20038;-82